sensor_id;sensor_type;location;lat;lon;timestamp;temperature;humidity
15359;DHT22;7779;49.596;11.070;2022-09-30T00:00:08;7.90;71.80
15359;DHT22;7779;49.596;11.070;2022-09-30T00:02:36;7.90;71.80
15359;DHT22;7779;49.596;11.070;2022-09-30T00:05:01;7.90;71.70
15359;DHT22;7779;49.596;11.070;2022-09-30T00:07:27;7.90;71.80
15359;DHT22;7779;49.596;11.070;2022-09-30T00:09:53;7.90;71.80
15359;DHT22;7779;49.596;11.070;2022-09-30T00:12:19;7.90;71.80
15359;DHT22;7779;49.596;11.070;2022-09-30T00:14:44;7.90;71.80
15359;DHT22;7779;49.596;11.070;2022-09-30T00:17:10;7.80;71.30
15359;DHT22;7779;49.596;11.070;2022-09-30T00:19:36;7.80;71.70
15359;DHT22;7779;49.596;11.070;2022-09-30T00:22:01;7.80;71.70
15359;DHT22;7779;49.596;11.070;2022-09-30T00:24:27;7.80;71.60
15359;DHT22;7779;49.596;11.070;2022-09-30T00:26:53;7.70;71.50
15359;DHT22;7779;49.596;11.070;2022-09-30T00:29:19;7.70;71.50
15359;DHT22;7779;49.596;11.070;2022-09-30T00:31:44;7.70;71.50
15359;DHT22;7779;49.596;11.070;2022-09-30T00:34:10;7.60;71.40
15359;DHT22;7779;49.596;11.070;2022-09-30T00:36:45;7.60;71.40
15359;DHT22;7779;49.596;11.070;2022-09-30T00:39:15;7.60;71.40
15359;DHT22;7779;49.596;11.070;2022-09-30T00:41:48;7.60;71.30
15359;DHT22;7779;49.596;11.070;2022-09-30T00:45:10;7.50;71.20
15359;DHT22;7779;49.596;11.070;2022-09-30T00:52:45;7.40;71.10
15359;DHT22;7779;49.596;11.070;2022-09-30T00:58:28;7.30;71.80
15359;DHT22;7779;49.596;11.070;2022-09-30T01:00:55;7.20;70.70
15359;DHT22;7779;49.596;11.070;2022-09-30T01:03:24;7.20;70.70
15359;DHT22;7779;49.596;11.070;2022-09-30T01:05:51;7.10;70.60
15359;DHT22;7779;49.596;11.070;2022-09-30T01:08:18;7.10;70.70
15359;DHT22;7779;49.596;11.070;2022-09-30T01:10:46;7.00;70.60
15359;DHT22;7779;49.596;11.070;2022-09-30T01:13:12;7.00;70.60
15359;DHT22;7779;49.596;11.070;2022-09-30T01:21:58;6.80;71.20
15359;DHT22;7779;49.596;11.070;2022-09-30T01:39:48;6.50;70.80
15359;DHT22;7779;49.596;11.070;2022-09-30T01:45:22;6.30;71.00
15359;DHT22;7779;49.596;11.070;2022-09-30T01:53:13;6.20;70.80
15359;DHT22;7779;49.596;11.070;2022-09-30T01:58:41;6.10;71.20
15359;DHT22;7779;49.596;11.070;2022-09-30T02:01:28;6.10;71.80
15359;DHT22;7779;49.596;11.070;2022-09-30T02:04:02;6.00;71.60
15359;DHT22;7779;49.596;11.070;2022-09-30T02:06:44;6.00;71.20
15359;DHT22;7779;49.596;11.070;2022-09-30T02:09:48;6.00;71.50
15359;DHT22;7779;49.596;11.070;2022-09-30T02:12:21;6.00;72.20
15359;DHT22;7779;49.596;11.070;2022-09-30T02:18:25;5.90;71.20
15359;DHT22;7779;49.596;11.070;2022-09-30T02:21:00;5.90;72.00
15359;DHT22;7779;49.596;11.070;2022-09-30T02:23:32;5.80;71.10
15359;DHT22;7779;49.596;11.070;2022-09-30T02:26:08;5.80;71.00
15359;DHT22;7779;49.596;11.070;2022-09-30T02:28:51;5.70;70.90
15359;DHT22;7779;49.596;11.070;2022-09-30T02:31:21;5.70;71.30
15359;DHT22;7779;49.596;11.070;2022-09-30T02:33:54;5.70;71.00
15359;DHT22;7779;49.596;11.070;2022-09-30T02:36:37;5.60;71.20
15359;DHT22;7779;49.596;11.070;2022-09-30T02:39:18;5.60;71.50
15359;DHT22;7779;49.596;11.070;2022-09-30T02:41:55;5.60;71.70
15359;DHT22;7779;49.596;11.070;2022-09-30T02:44:27;5.60;71.60
15359;DHT22;7779;49.596;11.070;2022-09-30T02:46:56;5.60;71.60
15359;DHT22;7779;49.596;11.070;2022-09-30T02:49:51;5.60;71.70
15359;DHT22;7779;49.596;11.070;2022-09-30T02:52:46;5.60;72.00
15359;DHT22;7779;49.596;11.070;2022-09-30T02:58:28;5.60;72.10
15359;DHT22;7779;49.596;11.070;2022-09-30T03:00:56;5.60;71.90
15359;DHT22;7779;49.596;11.070;2022-09-30T03:03:56;5.50;71.90
15359;DHT22;7779;49.596;11.070;2022-09-30T03:06:25;5.50;72.70
15359;DHT22;7779;49.596;11.070;2022-09-30T03:08:52;5.50;72.10
15359;DHT22;7779;49.596;11.070;2022-09-30T03:11:25;5.60;72.40
15359;DHT22;7779;49.596;11.070;2022-09-30T03:17:02;5.60;73.60
15359;DHT22;7779;49.596;11.070;2022-09-30T03:19:59;5.60;73.40
15359;DHT22;7779;49.596;11.070;2022-09-30T03:22:57;5.60;73.10
15359;DHT22;7779;49.596;11.070;2022-09-30T03:25:36;5.70;74.00
15359;DHT22;7779;49.596;11.070;2022-09-30T03:28:26;5.70;73.50
15359;DHT22;7779;49.596;11.070;2022-09-30T03:34:24;5.80;74.50
15359;DHT22;7779;49.596;11.070;2022-09-30T03:37:01;5.90;74.50
15359;DHT22;7779;49.596;11.070;2022-09-30T03:39:54;5.90;74.20
15359;DHT22;7779;49.596;11.070;2022-09-30T03:42:42;6.00;74.80
15359;DHT22;7779;49.596;11.070;2022-09-30T03:47:58;6.10;74.50
15359;DHT22;7779;49.596;11.070;2022-09-30T03:50:30;6.10;74.20
15359;DHT22;7779;49.596;11.070;2022-09-30T03:52:59;6.10;74.10
15359;DHT22;7779;49.596;11.070;2022-09-30T03:55:25;6.20;74.00
15359;DHT22;7779;49.596;11.070;2022-09-30T03:57:52;6.20;74.00
15359;DHT22;7779;49.596;11.070;2022-09-30T04:00:18;6.20;74.00
15359;DHT22;7779;49.596;11.070;2022-09-30T04:02:44;6.20;73.90
15359;DHT22;7779;49.596;11.070;2022-09-30T04:05:11;6.20;73.80
15359;DHT22;7779;49.596;11.070;2022-09-30T04:07:37;6.20;73.70
15359;DHT22;7779;49.596;11.070;2022-09-30T04:10:04;6.20;73.60
15359;DHT22;7779;49.596;11.070;2022-09-30T04:12:30;6.20;73.60
15359;DHT22;7779;49.596;11.070;2022-09-30T04:14:56;6.20;73.00
15359;DHT22;7779;49.596;11.070;2022-09-30T04:17:21;6.20;73.50
15359;DHT22;7779;49.596;11.070;2022-09-30T04:19:47;6.20;73.40
15359;DHT22;7779;49.596;11.070;2022-09-30T04:22:13;6.20;73.30
15359;DHT22;7779;49.596;11.070;2022-09-30T04:24:40;6.20;73.30
15359;DHT22;7779;49.596;11.070;2022-09-30T04:27:06;6.20;73.30
15359;DHT22;7779;49.596;11.070;2022-09-30T04:29:31;6.10;73.20
15359;DHT22;7779;49.596;11.070;2022-09-30T04:31:58;6.10;73.20
15359;DHT22;7779;49.596;11.070;2022-09-30T04:34:24;6.10;73.20
15359;DHT22;7779;49.596;11.070;2022-09-30T04:36:50;6.10;73.30
15359;DHT22;7779;49.596;11.070;2022-09-30T04:39:16;6.10;73.40
15359;DHT22;7779;49.596;11.070;2022-09-30T04:41:41;6.10;73.50
15359;DHT22;7779;49.596;11.070;2022-09-30T04:44:07;6.10;73.70
15359;DHT22;7779;49.596;11.070;2022-09-30T04:46:34;6.10;73.80
15359;DHT22;7779;49.596;11.070;2022-09-30T04:49:02;6.10;73.90
15359;DHT22;7779;49.596;11.070;2022-09-30T04:51:29;6.10;73.90
15359;DHT22;7779;49.596;11.070;2022-09-30T04:53:55;6.10;73.90
15359;DHT22;7779;49.596;11.070;2022-09-30T04:56:21;6.10;73.80
15359;DHT22;7779;49.596;11.070;2022-09-30T04:58:49;6.10;73.80
15359;DHT22;7779;49.596;11.070;2022-09-30T05:01:17;6.10;73.80
15359;DHT22;7779;49.596;11.070;2022-09-30T05:03:43;6.10;73.90
15359;DHT22;7779;49.596;11.070;2022-09-30T05:06:10;6.10;73.90
15359;DHT22;7779;49.596;11.070;2022-09-30T05:08:36;6.10;73.90
15359;DHT22;7779;49.596;11.070;2022-09-30T05:11:07;6.10;74.00
15359;DHT22;7779;49.596;11.070;2022-09-30T05:13:36;6.10;74.10
15359;DHT22;7779;49.596;11.070;2022-09-30T05:16:05;6.10;74.90
15359;DHT22;7779;49.596;11.070;2022-09-30T05:18:32;6.10;73.90
15359;DHT22;7779;49.596;11.070;2022-09-30T05:20:59;6.10;73.80
15359;DHT22;7779;49.596;11.070;2022-09-30T05:23:27;6.10;73.80
15359;DHT22;7779;49.596;11.070;2022-09-30T05:25:55;6.10;73.80
15359;DHT22;7779;49.596;11.070;2022-09-30T05:28:21;6.10;73.80
15359;DHT22;7779;49.596;11.070;2022-09-30T05:30:47;6.10;73.60
15359;DHT22;7779;49.596;11.070;2022-09-30T05:33:15;6.10;73.40
15359;DHT22;7779;49.596;11.070;2022-09-30T05:35:42;6.10;73.40
15359;DHT22;7779;49.596;11.070;2022-09-30T05:38:09;6.00;73.40
15359;DHT22;7779;49.596;11.070;2022-09-30T05:40:39;6.00;73.50
15359;DHT22;7779;49.596;11.070;2022-09-30T05:43:06;6.00;73.60
15359;DHT22;7779;49.596;11.070;2022-09-30T05:45:32;6.00;73.70
15359;DHT22;7779;49.596;11.070;2022-09-30T05:47:59;6.00;73.80
15359;DHT22;7779;49.596;11.070;2022-09-30T05:50:25;6.00;73.80
15359;DHT22;7779;49.596;11.070;2022-09-30T05:52:51;6.00;73.90
15359;DHT22;7779;49.596;11.070;2022-09-30T05:55:19;6.00;74.00
15359;DHT22;7779;49.596;11.070;2022-09-30T05:57:49;6.00;74.20
15359;DHT22;7779;49.596;11.070;2022-09-30T06:00:17;6.00;74.40
15359;DHT22;7779;49.596;11.070;2022-09-30T06:02:44;6.10;74.50
15359;DHT22;7779;49.596;11.070;2022-09-30T06:05:11;6.00;74.50
15359;DHT22;7779;49.596;11.070;2022-09-30T06:07:37;6.10;74.70
15359;DHT22;7779;49.596;11.070;2022-09-30T06:10:05;6.10;74.80
15359;DHT22;7779;49.596;11.070;2022-09-30T06:12:33;6.10;74.90
15359;DHT22;7779;49.596;11.070;2022-09-30T06:15:01;6.20;75.00
15359;DHT22;7779;49.596;11.070;2022-09-30T06:17:27;6.20;75.10
15359;DHT22;7779;49.596;11.070;2022-09-30T06:19:53;6.30;75.20
15359;DHT22;7779;49.596;11.070;2022-09-30T06:22:18;6.30;75.30
15359;DHT22;7779;49.596;11.070;2022-09-30T06:24:44;6.40;75.40
15359;DHT22;7779;49.596;11.070;2022-09-30T06:27:10;6.40;75.20
15359;DHT22;7779;49.596;11.070;2022-09-30T06:29:37;6.40;75.50
15359;DHT22;7779;49.596;11.070;2022-09-30T06:32:03;6.50;75.60
15359;DHT22;7779;49.596;11.070;2022-09-30T06:34:31;6.60;75.70
15359;DHT22;7779;49.596;11.070;2022-09-30T06:36:56;6.60;75.60
15359;DHT22;7779;49.596;11.070;2022-09-30T06:39:22;6.60;75.50
15359;DHT22;7779;49.596;11.070;2022-09-30T06:41:48;6.70;75.50
15359;DHT22;7779;49.596;11.070;2022-09-30T06:44:23;6.70;75.40
15359;DHT22;7779;49.596;11.070;2022-09-30T06:46:49;6.80;75.50
15359;DHT22;7779;49.596;11.070;2022-09-30T06:49:14;6.80;75.60
15359;DHT22;7779;49.596;11.070;2022-09-30T06:51:40;6.90;75.70
15359;DHT22;7779;49.596;11.070;2022-09-30T06:54:07;6.90;75.70
15359;DHT22;7779;49.596;11.070;2022-09-30T06:56:33;7.00;75.80
15359;DHT22;7779;49.596;11.070;2022-09-30T06:58:59;7.00;75.80
15359;DHT22;7779;49.596;11.070;2022-09-30T07:01:26;7.10;75.70
15359;DHT22;7779;49.596;11.070;2022-09-30T07:03:54;7.20;75.60
15359;DHT22;7779;49.596;11.070;2022-09-30T07:06:23;7.20;75.70
15359;DHT22;7779;49.596;11.070;2022-09-30T07:08:52;7.20;75.70
15359;DHT22;7779;49.596;11.070;2022-09-30T07:11:19;7.30;75.60
15359;DHT22;7779;49.596;11.070;2022-09-30T07:13:46;7.40;75.70
15359;DHT22;7779;49.596;11.070;2022-09-30T07:16:15;7.40;75.70
15359;DHT22;7779;49.596;11.070;2022-09-30T07:18:42;7.50;75.80
15359;DHT22;7779;49.596;11.070;2022-09-30T07:21:09;7.50;75.90
15359;DHT22;7779;49.596;11.070;2022-09-30T07:23:38;7.60;76.00
15359;DHT22;7779;49.596;11.070;2022-09-30T07:26:10;7.70;76.00
15359;DHT22;7779;49.596;11.070;2022-09-30T07:28:36;7.70;75.80
15359;DHT22;7779;49.596;11.070;2022-09-30T07:31:09;7.80;75.80
15359;DHT22;7779;49.596;11.070;2022-09-30T07:33:37;7.90;75.80
15359;DHT22;7779;49.596;11.070;2022-09-30T07:36:04;7.90;75.70
15359;DHT22;7779;49.596;11.070;2022-09-30T07:38:35;8.00;76.00
15359;DHT22;7779;49.596;11.070;2022-09-30T07:41:09;8.10;76.00
15359;DHT22;7779;49.596;11.070;2022-09-30T07:43:43;8.10;75.80
15359;DHT22;7779;49.596;11.070;2022-09-30T07:46:13;8.20;75.70
15359;DHT22;7779;49.596;11.070;2022-09-30T07:48:43;8.20;75.80
15359;DHT22;7779;49.596;11.070;2022-09-30T07:53:53;8.40;76.10
15359;DHT22;7779;49.596;11.070;2022-09-30T07:56:22;8.50;76.20
15359;DHT22;7779;49.596;11.070;2022-09-30T07:58:53;8.60;76.30
15359;DHT22;7779;49.596;11.070;2022-09-30T08:01:24;8.70;76.40
15359;DHT22;7779;49.596;11.070;2022-09-30T08:03:55;8.70;76.30
15359;DHT22;7779;49.596;11.070;2022-09-30T08:06:23;8.80;76.40
15359;DHT22;7779;49.596;11.070;2022-09-30T08:08:52;8.90;76.50
15359;DHT22;7779;49.596;11.070;2022-09-30T08:11:19;9.00;76.10
15359;DHT22;7779;49.596;11.070;2022-09-30T08:13:50;9.10;75.90
15359;DHT22;7779;49.596;11.070;2022-09-30T08:16:20;9.10;75.60
15359;DHT22;7779;49.596;11.070;2022-09-30T08:18:47;9.20;75.50
15359;DHT22;7779;49.596;11.070;2022-09-30T08:21:13;9.20;75.40
15359;DHT22;7779;49.596;11.070;2022-09-30T08:23:40;9.30;75.60
15359;DHT22;7779;49.596;11.070;2022-09-30T08:26:09;9.40;76.00
15359;DHT22;7779;49.596;11.070;2022-09-30T08:28:36;9.40;76.10
15359;DHT22;7779;49.596;11.070;2022-09-30T08:31:11;9.50;76.00
15359;DHT22;7779;49.596;11.070;2022-09-30T08:33:39;9.60;75.80
15359;DHT22;7779;49.596;11.070;2022-09-30T08:36:11;9.70;75.80
15359;DHT22;7779;49.596;11.070;2022-09-30T08:38:47;9.70;75.50
15359;DHT22;7779;49.596;11.070;2022-09-30T08:52:46;10.10;74.30
15359;DHT22;7779;49.596;11.070;2022-09-30T08:55:24;10.20;74.00
15359;DHT22;7779;49.596;11.070;2022-09-30T08:57:54;10.30;74.20
15359;DHT22;7779;49.596;11.070;2022-09-30T09:00:22;10.40;74.40
15359;DHT22;7779;49.596;11.070;2022-09-30T09:02:53;10.40;74.50
15359;DHT22;7779;49.596;11.070;2022-09-30T09:11:02;10.70;74.50
15359;DHT22;7779;49.596;11.070;2022-09-30T09:16:46;10.90;74.30
15359;DHT22;7779;49.596;11.070;2022-09-30T09:19:35;11.00;74.50
15359;DHT22;7779;49.596;11.070;2022-09-30T09:22:25;11.00;74.50
15359;DHT22;7779;49.596;11.070;2022-09-30T09:24:53;11.10;74.50
15359;DHT22;7779;49.596;11.070;2022-09-30T09:27:36;11.20;74.40
15359;DHT22;7779;49.596;11.070;2022-09-30T09:30:15;11.30;74.20
15359;DHT22;7779;49.596;11.070;2022-09-30T09:32:55;11.40;74.10
15359;DHT22;7779;49.596;11.070;2022-09-30T09:38:29;11.50;73.90
15359;DHT22;7779;49.596;11.070;2022-09-30T09:41:22;11.60;73.90
15359;DHT22;7779;49.596;11.070;2022-09-30T09:46:33;11.70;74.00
15359;DHT22;7779;49.596;11.070;2022-09-30T09:54:42;12.00;74.20
15359;DHT22;7779;49.596;11.070;2022-09-30T09:57:10;12.10;74.60
15359;DHT22;7779;49.596;11.070;2022-09-30T09:59:56;12.20;74.70
15359;DHT22;7779;49.596;11.070;2022-09-30T10:03:02;12.30;74.20
15359;DHT22;7779;49.596;11.070;2022-09-30T10:05:32;12.50;74.30
15359;DHT22;7779;49.596;11.070;2022-09-30T10:08:22;12.60;74.70
15359;DHT22;7779;49.596;11.070;2022-09-30T10:10:53;12.70;73.90
15359;DHT22;7779;49.596;11.070;2022-09-30T10:13:40;12.80;74.20
15359;DHT22;7779;49.596;11.070;2022-09-30T10:16:31;12.90;73.60
15359;DHT22;7779;49.596;11.070;2022-09-30T10:21:49;13.20;73.30
15359;DHT22;7779;49.596;11.070;2022-09-30T10:24:27;13.30;73.80
15359;DHT22;7779;49.596;11.070;2022-09-30T10:26:55;13.40;72.70
15359;DHT22;7779;49.596;11.070;2022-09-30T10:31:58;13.60;72.70
15359;DHT22;7779;49.596;11.070;2022-09-30T10:34:33;13.70;72.80
15359;DHT22;7779;49.596;11.070;2022-09-30T10:37:21;13.80;72.10
15359;DHT22;7779;49.596;11.070;2022-09-30T10:40:01;13.90;71.40
15359;DHT22;7779;49.596;11.070;2022-09-30T10:42:33;13.90;71.60
15359;DHT22;7779;49.596;11.070;2022-09-30T10:45:06;14.00;72.10
15359;DHT22;7779;49.596;11.070;2022-09-30T10:47:49;14.10;72.20
15359;DHT22;7779;49.596;11.070;2022-09-30T10:50:22;14.20;71.70
15359;DHT22;7779;49.596;11.070;2022-09-30T10:53:38;14.30;71.90
15359;DHT22;7779;49.596;11.070;2022-09-30T10:55:54;14.40;71.60
15359;DHT22;7779;49.596;11.070;2022-09-30T10:58:44;14.50;72.10
15359;DHT22;7779;49.596;11.070;2022-09-30T11:01:35;14.60;70.60
15359;DHT22;7779;49.596;11.070;2022-09-30T11:04:38;14.70;70.90
15359;DHT22;7779;49.596;11.070;2022-09-30T11:07:20;14.80;70.40
15359;DHT22;7779;49.596;11.070;2022-09-30T11:19:13;15.20;70.50
15359;DHT22;7779;49.596;11.070;2022-09-30T11:22:25;15.30;71.30
15359;DHT22;7779;49.596;11.070;2022-09-30T11:24:58;15.40;70.30
15359;DHT22;7779;49.596;11.070;2022-09-30T11:27:34;15.50;70.50
15359;DHT22;7779;49.596;11.070;2022-09-30T11:33:42;15.70;68.40
15359;DHT22;7779;49.596;11.070;2022-09-30T11:36:43;15.80;69.60
15359;DHT22;7779;49.596;11.070;2022-09-30T11:58:50;16.50;66.90
15359;DHT22;7779;49.596;11.070;2022-09-30T12:01:30;16.60;67.50
15359;DHT22;7779;49.596;11.070;2022-09-30T12:04:00;16.60;65.80
15359;DHT22;7779;49.596;11.070;2022-09-30T12:09:45;16.80;65.30
15359;DHT22;7779;49.596;11.070;2022-09-30T12:12:17;16.80;64.50
15359;DHT22;7779;49.596;11.070;2022-09-30T12:14:58;16.90;66.00
15359;DHT22;7779;49.596;11.070;2022-09-30T12:17:37;16.90;65.90
15359;DHT22;7779;49.596;11.070;2022-09-30T12:20:46;17.00;65.10
15359;DHT22;7779;49.596;11.070;2022-09-30T12:23:31;17.00;63.80
15359;DHT22;7779;49.596;11.070;2022-09-30T12:26:03;17.10;63.30
15359;DHT22;7779;49.596;11.070;2022-09-30T12:44:58;17.20;63.00
15359;DHT22;7779;49.596;11.070;2022-09-30T12:47:49;17.20;63.80
15359;DHT22;7779;49.596;11.070;2022-09-30T12:50:21;17.20;64.40
15359;DHT22;7779;49.596;11.070;2022-09-30T12:52:55;17.20;64.30
15359;DHT22;7779;49.596;11.070;2022-09-30T12:55:29;17.20;64.10
15359;DHT22;7779;49.596;11.070;2022-09-30T12:58:02;17.20;64.00
15359;DHT22;7779;49.596;11.070;2022-09-30T13:00:33;17.20;63.90
15359;DHT22;7779;49.596;11.070;2022-09-30T13:03:14;17.20;63.30
15359;DHT22;7779;49.596;11.070;2022-09-30T13:05:56;17.20;62.20
15359;DHT22;7779;49.596;11.070;2022-09-30T13:08:45;17.20;62.30
15359;DHT22;7779;49.596;11.070;2022-09-30T13:27:36;17.20;61.30
15359;DHT22;7779;49.596;11.070;2022-09-30T13:32:45;17.20;61.30
15359;DHT22;7779;49.596;11.070;2022-09-30T13:35:33;17.10;62.10
15359;DHT22;7779;49.596;11.070;2022-09-30T13:38:35;17.10;60.80
15359;DHT22;7779;49.596;11.070;2022-09-30T13:41:20;17.10;60.40
15359;DHT22;7779;49.596;11.070;2022-09-30T13:44:20;17.20;61.00
15359;DHT22;7779;49.596;11.070;2022-09-30T13:46:57;17.10;59.60
15359;DHT22;7779;49.596;11.070;2022-09-30T13:49:51;17.10;61.30
15359;DHT22;7779;49.596;11.070;2022-09-30T13:52:27;17.10;60.40
15359;DHT22;7779;49.596;11.070;2022-09-30T13:55:01;17.10;60.90
15359;DHT22;7779;49.596;11.070;2022-09-30T14:17:16;17.00;59.70
15359;DHT22;7779;49.596;11.070;2022-09-30T14:23:01;16.90;59.90
15359;DHT22;7779;49.596;11.070;2022-09-30T14:25:32;16.80;60.70
15359;DHT22;7779;49.596;11.070;2022-09-30T14:28:11;16.90;60.40
15359;DHT22;7779;49.596;11.070;2022-09-30T14:30:42;16.90;60.30
15359;DHT22;7779;49.596;11.070;2022-09-30T14:33:32;16.80;60.60
15359;DHT22;7779;49.596;11.070;2022-09-30T14:36:09;16.80;60.60
15359;DHT22;7779;49.596;11.070;2022-09-30T14:38:38;16.80;59.80
15359;DHT22;7779;49.596;11.070;2022-09-30T14:41:16;16.70;60.20
15359;DHT22;7779;49.596;11.070;2022-09-30T14:43:45;16.70;59.80
15359;DHT22;7779;49.596;11.070;2022-09-30T14:46:29;16.70;60.00
15359;DHT22;7779;49.596;11.070;2022-09-30T14:49:05;16.70;59.20
15359;DHT22;7779;49.596;11.070;2022-09-30T14:51:38;16.60;59.70
15359;DHT22;7779;49.596;11.070;2022-09-30T14:56:47;16.50;58.80
15359;DHT22;7779;49.596;11.070;2022-09-30T14:59:22;16.50;59.60
15359;DHT22;7779;49.596;11.070;2022-09-30T15:01:54;16.40;58.90
15359;DHT22;7779;49.596;11.070;2022-09-30T15:04:29;16.40;59.30
15359;DHT22;7779;49.596;11.070;2022-09-30T15:06:58;16.30;57.60
15359;DHT22;7779;49.596;11.070;2022-09-30T15:09:31;16.30;59.40
15359;DHT22;7779;49.596;11.070;2022-09-30T15:12:03;16.30;59.30
15359;DHT22;7779;49.596;11.070;2022-09-30T15:14:30;16.20;59.20
15359;DHT22;7779;49.596;11.070;2022-09-30T15:16:57;16.20;57.70
15359;DHT22;7779;49.596;11.070;2022-09-30T15:19:33;16.20;59.30
15359;DHT22;7779;49.596;11.070;2022-09-30T15:22:09;16.10;58.40
15359;DHT22;7779;49.596;11.070;2022-09-30T15:24:38;16.10;59.10
15359;DHT22;7779;49.596;11.070;2022-09-30T15:27:23;16.10;59.20
15359;DHT22;7779;49.596;11.070;2022-09-30T15:29:57;16.00;58.60
15359;DHT22;7779;49.596;11.070;2022-09-30T15:32:29;16.00;59.10
15359;DHT22;7779;49.596;11.070;2022-09-30T15:35:14;15.90;58.90
15359;DHT22;7779;49.596;11.070;2022-09-30T15:37:43;15.90;58.10
15359;DHT22;7779;49.596;11.070;2022-09-30T15:40:21;15.90;58.90
15359;DHT22;7779;49.596;11.070;2022-09-30T15:43:09;15.80;58.00
15359;DHT22;7779;49.596;11.070;2022-09-30T15:45:41;15.80;58.80
15359;DHT22;7779;49.596;11.070;2022-09-30T15:50:49;15.70;58.30
15359;DHT22;7779;49.596;11.070;2022-09-30T15:53:23;15.60;58.20
15359;DHT22;7779;49.596;11.070;2022-09-30T15:55:52;15.60;58.60
15359;DHT22;7779;49.596;11.070;2022-09-30T15:58:33;15.50;58.50
15359;DHT22;7779;49.596;11.070;2022-09-30T16:01:18;15.50;58.30
15359;DHT22;7779;49.596;11.070;2022-09-30T16:09:17;15.30;58.70
15359;DHT22;7779;49.596;11.070;2022-09-30T16:14:30;15.20;58.70
15359;DHT22;7779;49.596;11.070;2022-09-30T16:17:34;15.20;58.80
15359;DHT22;7779;49.596;11.070;2022-09-30T16:20:22;15.10;58.50
15359;DHT22;7779;49.596;11.070;2022-09-30T16:22:53;15.00;58.70
15359;DHT22;7779;49.596;11.070;2022-09-30T16:25:31;15.00;59.00
15359;DHT22;7779;49.596;11.070;2022-09-30T16:28:09;14.90;58.80
15359;DHT22;7779;49.596;11.070;2022-09-30T16:30:42;14.80;59.10
15359;DHT22;7779;49.596;11.070;2022-09-30T16:33:12;14.80;59.10
15359;DHT22;7779;49.596;11.070;2022-09-30T16:35:44;14.60;58.40
15359;DHT22;7779;49.596;11.070;2022-09-30T16:38:13;14.60;59.30
15359;DHT22;7779;49.596;11.070;2022-09-30T16:40:40;14.50;59.40
15359;DHT22;7779;49.596;11.070;2022-09-30T16:43:06;14.40;59.40
15359;DHT22;7779;49.596;11.070;2022-09-30T16:45:35;14.40;59.60
15359;DHT22;7779;49.596;11.070;2022-09-30T16:48:08;14.30;59.70
15359;DHT22;7779;49.596;11.070;2022-09-30T16:50:56;14.20;59.90
15359;DHT22;7779;49.596;11.070;2022-09-30T16:53:27;14.10;60.10
15359;DHT22;7779;49.596;11.070;2022-09-30T16:55:52;14.00;60.20
15359;DHT22;7779;49.596;11.070;2022-09-30T16:58:18;13.90;60.30
15359;DHT22;7779;49.596;11.070;2022-09-30T17:00:45;13.80;60.30
15359;DHT22;7779;49.596;11.070;2022-09-30T17:03:12;13.70;60.50
15359;DHT22;7779;49.596;11.070;2022-09-30T17:05:40;13.60;60.70
15359;DHT22;7779;49.596;11.070;2022-09-30T17:08:10;13.50;60.80
15359;DHT22;7779;49.596;11.070;2022-09-30T17:10:42;13.40;61.00
15359;DHT22;7779;49.596;11.070;2022-09-30T17:13:09;13.30;61.20
15359;DHT22;7779;49.596;11.070;2022-09-30T17:15:35;13.10;61.40
15359;DHT22;7779;49.596;11.070;2022-09-30T17:18:07;13.10;61.40
15359;DHT22;7779;49.596;11.070;2022-09-30T17:20:36;13.00;61.70
15359;DHT22;7779;49.596;11.070;2022-09-30T17:23:03;12.90;61.60
15359;DHT22;7779;49.596;11.070;2022-09-30T17:25:29;12.80;61.80
15359;DHT22;7779;49.596;11.070;2022-09-30T17:27:54;12.70;61.90
15359;DHT22;7779;49.596;11.070;2022-09-30T17:30:21;12.60;61.60
15359;DHT22;7779;49.596;11.070;2022-09-30T17:32:48;12.50;62.70
15359;DHT22;7779;49.596;11.070;2022-09-30T17:35:14;12.50;62.30
15359;DHT22;7779;49.596;11.070;2022-09-30T17:37:39;12.30;62.90
15359;DHT22;7779;49.596;11.070;2022-09-30T17:40:06;12.30;62.60
15359;DHT22;7779;49.596;11.070;2022-09-30T17:42:54;12.20;62.70
15359;DHT22;7779;49.596;11.070;2022-09-30T17:45:33;12.10;63.00
15359;DHT22;7779;49.596;11.070;2022-09-30T17:47:59;12.00;62.90
15359;DHT22;7779;49.596;11.070;2022-09-30T17:50:25;11.90;63.10
15359;DHT22;7779;49.596;11.070;2022-09-30T17:52:51;11.80;63.20
15359;DHT22;7779;49.596;11.070;2022-09-30T17:55:18;11.70;64.10
15359;DHT22;7779;49.596;11.070;2022-09-30T17:57:45;11.70;63.50
15359;DHT22;7779;49.596;11.070;2022-09-30T18:00:11;11.60;63.60
15359;DHT22;7779;49.596;11.070;2022-09-30T18:02:37;11.50;63.60
15359;DHT22;7779;49.596;11.070;2022-09-30T18:05:05;11.40;63.70
15359;DHT22;7779;49.596;11.070;2022-09-30T18:07:31;11.30;63.80
15359;DHT22;7779;49.596;11.070;2022-09-30T18:09:56;11.20;63.90
15359;DHT22;7779;49.596;11.070;2022-09-30T18:12:22;11.10;65.00
15359;DHT22;7779;49.596;11.070;2022-09-30T18:14:48;11.00;64.10
15359;DHT22;7779;49.596;11.070;2022-09-30T18:17:14;11.00;64.00
15359;DHT22;7779;49.596;11.070;2022-09-30T18:19:40;10.90;64.30
15359;DHT22;7779;49.596;11.070;2022-09-30T18:22:06;10.80;64.50
15359;DHT22;7779;49.596;11.070;2022-09-30T18:24:42;10.80;64.70
15359;DHT22;7779;49.596;11.070;2022-09-30T18:27:26;10.70;65.40
15359;DHT22;7779;49.596;11.070;2022-09-30T18:29:52;10.60;64.80
15359;DHT22;7779;49.596;11.070;2022-09-30T18:32:18;10.50;64.80
15359;DHT22;7779;49.596;11.070;2022-09-30T18:34:43;10.40;64.90
15359;DHT22;7779;49.596;11.070;2022-09-30T18:37:09;10.40;65.40
15359;DHT22;7779;49.596;11.070;2022-09-30T18:39:35;10.30;65.30
15359;DHT22;7779;49.596;11.070;2022-09-30T18:42:04;10.20;65.30
15359;DHT22;7779;49.596;11.070;2022-09-30T18:44:30;10.20;65.40
15359;DHT22;7779;49.596;11.070;2022-09-30T18:47:03;10.10;66.10
15359;DHT22;7779;49.596;11.070;2022-09-30T18:49:29;10.00;65.40
15359;DHT22;7779;49.596;11.070;2022-09-30T18:51:55;10.00;65.60
15359;DHT22;7779;49.596;11.070;2022-09-30T18:54:22;9.90;66.60
15359;DHT22;7779;49.596;11.070;2022-09-30T18:56:49;9.80;67.60
15359;DHT22;7779;49.596;11.070;2022-09-30T18:59:16;9.70;67.90
15359;DHT22;7779;49.596;11.070;2022-09-30T19:01:42;9.70;66.90
15359;DHT22;7779;49.596;11.070;2022-09-30T19:04:10;9.70;67.00
15359;DHT22;7779;49.596;11.070;2022-09-30T19:06:37;9.60;68.00
15359;DHT22;7779;49.596;11.070;2022-09-30T19:09:04;9.50;68.20
15359;DHT22;7779;49.596;11.070;2022-09-30T19:11:34;9.50;67.20
15359;DHT22;7779;49.596;11.070;2022-09-30T19:14:01;9.50;67.40
15359;DHT22;7779;49.596;11.070;2022-09-30T19:16:30;9.40;68.70
15359;DHT22;7779;49.596;11.070;2022-09-30T19:19:00;9.40;67.80
15359;DHT22;7779;49.596;11.070;2022-09-30T19:21:29;9.30;68.00
15359;DHT22;7779;49.596;11.070;2022-09-30T19:23:57;9.30;68.00
15359;DHT22;7779;49.596;11.070;2022-09-30T19:26:24;9.20;69.50
15359;DHT22;7779;49.596;11.070;2022-09-30T19:28:52;9.20;68.30
15359;DHT22;7779;49.596;11.070;2022-09-30T19:31:18;9.20;68.50
15359;DHT22;7779;49.596;11.070;2022-09-30T19:33:46;9.20;68.60
15359;DHT22;7779;49.596;11.070;2022-09-30T19:36:15;9.10;68.60